createdAt,value
2022-12-29T00:00:12.376Z,6.90
2022-12-29T00:02:42.711Z,6.35
2022-12-29T00:05:10.169Z,6.27
2022-12-29T00:07:37.047Z,6.12
2022-12-29T00:10:04.893Z,6.09
2022-12-29T00:12:51.541Z,6.43
2022-12-29T00:15:37.056Z,5.92
2022-12-29T00:18:03.981Z,6.29
2022-12-29T00:20:59.870Z,6.62
2022-12-29T00:23:45.510Z,6.20
2022-12-29T00:26:36.184Z,6.18
2022-12-29T00:29:22.015Z,5.82
2022-12-29T00:32:07.634Z,6.59
2022-12-29T00:34:53.017Z,6.11
2022-12-29T00:37:39.815Z,6.14
2022-12-29T00:40:25.552Z,5.72
2022-12-29T00:43:11.963Z,5.89
2022-12-29T00:45:42.735Z,6.54
2022-12-29T00:48:09.668Z,6.17
2022-12-29T00:50:36.599Z,6.50
2022-12-29T00:53:03.334Z,5.77
2022-12-29T00:55:29.994Z,5.34
2022-12-29T00:57:56.812Z,6.26
2022-12-29T01:00:23.563Z,6.10
2022-12-29T01:02:50.784Z,6.16
2022-12-29T01:05:17.713Z,6.33
2022-12-29T01:07:45.975Z,6.67
2022-12-29T01:10:12.695Z,5.98
2022-12-29T01:12:42.250Z,5.88
2022-12-29T01:15:13.020Z,6.09
2022-12-29T01:17:39.854Z,6.47
2022-12-29T01:20:07.369Z,6.56
2022-12-29T01:22:35.436Z,7.01
2022-12-29T01:25:02.195Z,6.74
2022-12-29T01:27:28.972Z,6.76
2022-12-29T01:29:55.694Z,6.41
2022-12-29T01:32:22.482Z,6.10
2022-12-29T01:34:49.392Z,6.34
2022-12-29T01:37:16.371Z,6.21
2022-12-29T01:39:44.840Z,6.05
2022-12-29T01:42:27.171Z,6.14
2022-12-29T01:44:59.067Z,6.41
2022-12-29T01:47:40.738Z,6.33
2022-12-29T01:50:24.026Z,6.21
2022-12-29T01:53:06.608Z,7.07
2022-12-29T01:55:44.079Z,7.51
2022-12-29T01:58:12.680Z,7.46
2022-12-29T02:00:39.461Z,7.24
2022-12-29T02:03:08.926Z,7.56
2022-12-29T02:06:11.005Z,7.69
2022-12-29T02:08:39.803Z,6.79
2022-12-29T02:11:07.965Z,6.86
2022-12-29T02:13:35.026Z,7.00
2022-12-29T02:16:21.832Z,7.19
2022-12-29T02:19:32.059Z,7.12
2022-12-29T02:22:35.804Z,7.10
2022-12-29T02:25:42.801Z,7.68
2022-12-29T02:28:40.431Z,7.14
2022-12-29T02:31:47.220Z,7.91
2022-12-29T02:34:54.475Z,7.30
2022-12-29T02:37:45.929Z,7.23
2022-12-29T02:40:40.024Z,7.40
2022-12-29T02:43:19.610Z,7.24
2022-12-29T02:46:24.655Z,6.91
2022-12-29T02:49:19.020Z,7.64
2022-12-29T02:52:08.481Z,7.65
2022-12-29T02:54:43.424Z,7.54
2022-12-29T02:57:23.161Z,7.92
2022-12-29T02:59:55.087Z,7.33
2022-12-29T03:03:20.063Z,7.64
2022-12-29T03:06:08.240Z,7.86
2022-12-29T03:08:56.055Z,7.58
2022-12-29T03:11:54.311Z,7.04
2022-12-29T03:14:57.619Z,7.95
2022-12-29T03:17:36.404Z,7.64
2022-12-29T03:20:11.289Z,7.93
2022-12-29T03:22:45.892Z,8.28
2022-12-29T03:25:24.967Z,7.91
2022-12-29T03:27:59.518Z,7.77
2022-12-29T03:30:30.328Z,7.63
2022-12-29T03:33:05.984Z,7.16
2022-12-29T03:35:37.447Z,7.04
2022-12-29T03:38:28.814Z,6.85
2022-12-29T03:41:02.971Z,7.59
2022-12-29T03:43:30.992Z,7.35
2022-12-29T03:45:57.834Z,7.37
2022-12-29T03:48:24.744Z,7.22
2022-12-29T03:50:54.131Z,7.07
2022-12-29T03:53:21.168Z,7.04
2022-12-29T03:55:47.891Z,7.40
2022-12-29T03:58:14.701Z,7.15
2022-12-29T04:01:05.949Z,6.88
2022-12-29T04:03:35.498Z,7.02
2022-12-29T04:06:02.239Z,7.22
2022-12-29T04:08:35.697Z,7.40
2022-12-29T04:11:02.979Z,7.29
2022-12-29T04:13:29.826Z,7.59
2022-12-29T04:15:57.014Z,7.85
2022-12-29T04:18:23.841Z,7.91
2022-12-29T04:21:06.493Z,7.97
2022-12-29T04:23:38.106Z,8.01
2022-12-29T04:26:08.624Z,8.02
2022-12-29T04:28:39.567Z,7.81
2022-12-29T04:31:25.155Z,8.38
2022-12-29T04:33:52.030Z,8.26
2022-12-29T04:36:19.272Z,8.46
2022-12-29T04:38:46.302Z,8.12
2022-12-29T04:41:13.721Z,7.97
2022-12-29T04:43:40.504Z,7.29
2022-12-29T04:46:26.028Z,7.83
2022-12-29T04:49:13.142Z,7.65
2022-12-29T04:51:55.335Z,8.46
2022-12-29T04:54:22.234Z,8.26
2022-12-29T04:56:56.195Z,8.71
2022-12-29T04:59:24.560Z,8.66
2022-12-29T05:01:54.778Z,8.38
2022-12-29T05:04:22.289Z,8.21
2022-12-29T05:06:49.052Z,8.30
2022-12-29T05:09:17.488Z,8.54
2022-12-29T05:11:45.575Z,8.29
2022-12-29T05:14:12.378Z,7.98
2022-12-29T05:16:39.074Z,7.52
2022-12-29T05:19:06.016Z,8.13
2022-12-29T05:21:33.448Z,8.24
2022-12-29T05:24:00.377Z,7.69
2022-12-29T05:26:27.957Z,7.32
2022-12-29T05:29:13.273Z,7.78
2022-12-29T05:31:40.266Z,7.49
2022-12-29T05:34:07.149Z,7.46
2022-12-29T05:36:37.728Z,7.16
2022-12-29T05:39:06.310Z,7.66
2022-12-29T05:41:35.174Z,7.89
2022-12-29T05:44:19.780Z,7.63
2022-12-29T05:46:55.607Z,7.78
2022-12-29T05:49:44.954Z,7.87
2022-12-29T05:52:29.582Z,7.95
2022-12-29T05:54:56.442Z,7.72
2022-12-29T05:57:25.309Z,7.22
2022-12-29T06:00:02.417Z,7.21
2022-12-29T06:02:29.913Z,7.67
2022-12-29T06:04:57.805Z,7.86
2022-12-29T06:07:24.836Z,7.46
2022-12-29T06:09:51.632Z,7.09
2022-12-29T06:12:19.303Z,7.01
2022-12-29T06:14:48.861Z,7.37
2022-12-29T06:17:16.558Z,7.58
2022-12-29T06:19:45.321Z,7.32
2022-12-29T06:22:13.179Z,7.42
2022-12-29T06:24:41.267Z,7.07
2022-12-29T06:27:08.286Z,8.22
2022-12-29T06:29:37.224Z,7.30
2022-12-29T06:32:04.957Z,7.33
2022-12-29T06:34:33.708Z,7.54
2022-12-29T06:37:00.553Z,7.55
2022-12-29T06:39:27.230Z,7.24
2022-12-29T06:42:10.901Z,7.57
2022-12-29T06:44:40.612Z,7.72
2022-12-29T06:47:10.328Z,7.52
2022-12-29T06:49:37.176Z,7.09
2022-12-29T06:52:10.816Z,7.54
2022-12-29T06:54:39.670Z,7.74
2022-12-29T06:57:06.402Z,7.63
2022-12-29T06:59:33.176Z,7.56
2022-12-29T07:02:00.180Z,7.63
2022-12-29T07:04:27.300Z,7.55
2022-12-29T07:06:53.997Z,7.44
2022-12-29T07:09:20.935Z,7.64
2022-12-29T07:11:47.688Z,7.73
2022-12-29T07:14:14.531Z,7.97
2022-12-29T07:16:41.346Z,8.28
2022-12-29T07:19:08.140Z,7.96
2022-12-29T07:21:34.776Z,7.79
2022-12-29T07:24:01.643Z,8.12
2022-12-29T07:26:34.420Z,8.05
2022-12-29T07:29:05.057Z,7.69
2022-12-29T07:31:32.173Z,8.39
2022-12-29T07:33:58.963Z,8.82
2022-12-29T07:36:29.398Z,8.23
2022-12-29T07:39:01.041Z,7.64
2022-12-29T07:41:27.904Z,7.21
2022-12-29T07:43:54.660Z,7.48
2022-12-29T07:46:55.361Z,7.55
2022-12-29T07:49:18.001Z,8.36
2022-12-29T07:51:44.690Z,8.24
2022-12-29T07:54:13.473Z,8.50
2022-12-29T07:56:40.127Z,8.67
2022-12-29T07:59:07.004Z,8.77
2022-12-29T08:01:33.799Z,7.92
2022-12-29T08:04:00.757Z,8.13
2022-12-29T08:06:27.602Z,8.36
2022-12-29T08:08:54.400Z,8.00
2022-12-29T08:11:21.134Z,8.26
2022-12-29T08:13:48.244Z,7.79
2022-12-29T08:16:15.104Z,8.02
2022-12-29T08:18:41.987Z,8.13
2022-12-29T08:21:08.765Z,7.89
2022-12-29T08:23:35.503Z,8.13
2022-12-29T08:26:05.230Z,8.05
2022-12-29T08:28:33.733Z,8.04
2022-12-29T08:31:03.954Z,7.61
2022-12-29T08:33:31.507Z,7.98
2022-12-29T08:36:03.853Z,8.29
2022-12-29T08:38:31.015Z,7.89
2022-12-29T08:40:59.117Z,8.17
2022-12-29T08:43:26.581Z,8.46
2022-12-29T08:45:53.380Z,8.69
2022-12-29T08:48:23.079Z,8.50
2022-12-29T08:50:51.271Z,8.62
2022-12-29T08:53:18.944Z,8.82
2022-12-29T08:56:02.371Z,8.92
2022-12-29T08:58:32.298Z,8.79
2022-12-29T09:01:00.260Z,8.77
2022-12-29T09:06:17.730Z,8.61
2022-12-29T09:08:45.483Z,8.85
2022-12-29T09:11:20.871Z,8.91
2022-12-29T09:13:48.093Z,8.78
2022-12-29T09:16:15.580Z,8.88
2022-12-29T09:18:43.331Z,9.26
2022-12-29T09:21:11.940Z,9.42
2022-12-29T09:23:39.418Z,9.42
2022-12-29T09:26:06.784Z,8.94
2022-12-29T09:28:33.518Z,9.68
2022-12-29T09:31:01.615Z,10.40
2022-12-29T09:33:28.710Z,10.25
2022-12-29T09:35:58.376Z,9.29
2022-12-29T09:38:27.525Z,9.83
2022-12-29T09:41:00.894Z,9.65
2022-12-29T09:43:59.431Z,10.00
2022-12-29T09:46:37.169Z,9.56
2022-12-29T09:49:52.212Z,9.64
2022-12-29T09:52:37.692Z,10.66
2022-12-29T09:55:14.196Z,11.04
2022-12-29T09:57:52.557Z,11.02
2022-12-29T10:00:33.707Z,9.80
2022-12-29T10:03:15.840Z,10.13
2022-12-29T10:06:11.149Z,9.87
2022-12-29T10:08:44.653Z,10.34
2022-12-29T10:11:52.479Z,9.93
2022-12-29T10:14:52.162Z,9.63
2022-12-29T10:17:54.252Z,10.01
2022-12-29T10:21:16.351Z,10.16
2022-12-29T10:23:53.827Z,10.68
2022-12-29T10:26:28.017Z,10.50
2022-12-29T10:29:09.539Z,10.10
2022-12-29T10:31:59.315Z,10.25
2022-12-29T10:34:39.388Z,9.78
2022-12-29T10:37:18.355Z,9.49
2022-12-29T10:39:52.986Z,9.54
2022-12-29T10:42:37.855Z,9.52
2022-12-29T10:45:06.420Z,9.14
2022-12-29T10:47:43.520Z,9.07
2022-12-29T10:50:13.934Z,8.60
2022-12-29T10:52:41.528Z,8.94
2022-12-29T10:55:22.287Z,8.97
2022-12-29T10:57:50.478Z,8.73
2022-12-29T11:00:21.877Z,8.61
2022-12-29T11:03:30.063Z,8.53
2022-12-29T11:06:06.017Z,8.38
2022-12-29T11:08:39.444Z,8.36
2022-12-29T11:11:10.544Z,8.36
2022-12-29T11:13:52.242Z,8.13
2022-12-29T11:16:33.124Z,7.28
2022-12-29T11:19:00.759Z,7.48
2022-12-29T11:21:43.336Z,7.48
2022-12-29T11:24:23.180Z,7.80
2022-12-29T11:26:58.474Z,7.90
2022-12-29T11:29:30.148Z,7.98
2022-12-29T11:32:00.259Z,7.54
2022-12-29T11:34:36.811Z,7.35
2022-12-29T11:37:11.585Z,7.06
2022-12-29T11:40:09.262Z,7.16
2022-12-29T11:42:52.477Z,7.38
2022-12-29T11:45:24.708Z,7.14
2022-12-29T11:47:58.887Z,7.97
2022-12-29T11:50:30.396Z,7.53
2022-12-29T11:53:07.392Z,7.14
2022-12-29T11:55:35.055Z,7.27
2022-12-29T11:58:05.449Z,7.55
2022-12-29T12:00:40.594Z,6.98
2022-12-29T12:03:22.131Z,7.34
2022-12-29T12:06:02.528Z,7.52
2022-12-29T12:08:39.034Z,7.33
2022-12-29T12:11:38.831Z,7.27
2022-12-29T12:14:23.094Z,7.32
2022-12-29T12:17:53.543Z,7.39
2022-12-29T12:20:48.127Z,7.62
2022-12-29T12:23:33.906Z,7.31
2022-12-29T12:26:23.946Z,7.19
2022-12-29T12:29:28.968Z,7.53
2022-12-29T12:32:02.576Z,7.41
2022-12-29T12:34:36.999Z,7.70
2022-12-29T12:37:07.836Z,7.61
2022-12-29T12:39:46.402Z,8.09
2022-12-29T12:42:53.210Z,7.51
2022-12-29T12:45:48.275Z,8.00
2022-12-29T12:48:55.070Z,7.88
2022-12-29T12:51:57.084Z,7.63
2022-12-29T12:55:21.139Z,7.81
2022-12-29T12:58:12.319Z,7.72
2022-12-29T13:01:36.227Z,7.50
2022-12-29T13:04:39.653Z,7.50
2022-12-29T13:07:12.955Z,7.49
2022-12-29T13:10:06.703Z,7.77
2022-12-29T13:12:47.017Z,8.35
2022-12-29T13:15:20.303Z,7.98
2022-12-29T13:18:14.739Z,8.60
2022-12-29T13:20:57.649Z,9.02
2022-12-29T13:23:35.164Z,9.10
2022-12-29T13:26:31.105Z,8.96
2022-12-29T13:29:23.608Z,9.21
2022-12-29T13:32:24.296Z,8.75
2022-12-29T13:35:32.162Z,9.11
2022-12-29T13:38:47.882Z,9.70
2022-12-29T13:41:45.114Z,9.19
2022-12-29T13:44:21.293Z,9.57
2022-12-29T13:46:50.238Z,9.23
2022-12-29T13:49:22.767Z,9.63
2022-12-29T13:52:05.184Z,9.51
2022-12-29T13:54:57.525Z,10.17
2022-12-29T13:58:02.227Z,10.57
2022-12-29T14:00:53.077Z,10.28
2022-12-29T14:03:49.307Z,10.55
2022-12-29T14:06:35.711Z,10.70
2022-12-29T14:09:07.293Z,10.16
2022-12-29T14:11:37.839Z,9.52
2022-12-29T14:14:22.441Z,9.60
2022-12-29T14:16:50.378Z,9.22
2022-12-29T14:19:18.198Z,9.14
2022-12-29T14:21:58.193Z,8.73
2022-12-29T14:24:32.404Z,7.66
2022-12-29T14:26:59.484Z,6.92
2022-12-29T14:29:26.013Z,6.44
2022-12-29T14:31:53.879Z,6.14
2022-12-29T14:34:38.036Z,6.27
2022-12-29T14:37:05.058Z,6.08
2022-12-29T14:39:45.248Z,6.60
2022-12-29T14:42:11.837Z,6.78
2022-12-29T14:45:09.067Z,7.15
2022-12-29T14:47:41.136Z,7.59
2022-12-29T14:50:26.964Z,8.30
2022-12-29T14:53:03.099Z,8.77
2022-12-29T14:55:56.803Z,8.86
2022-12-29T14:58:33.409Z,9.17
2022-12-29T15:01:01.638Z,9.77
2022-12-29T15:03:42.964Z,9.09
2022-12-29T15:06:14.207Z,9.36
2022-12-29T15:09:30.684Z,9.84
2022-12-29T15:12:34.798Z,10.27
2022-12-29T15:15:03.424Z,10.67
2022-12-29T15:17:35.586Z,10.36
2022-12-29T15:20:28.718Z,10.75
2022-12-29T15:22:59.341Z,11.45
2022-12-29T15:25:27.373Z,11.83
2022-12-29T15:28:05.614Z,11.19
2022-12-29T15:30:32.874Z,10.99
2022-12-29T15:32:59.616Z,10.25
2022-12-29T15:35:37.560Z,10.09
2022-12-29T15:38:31.128Z,8.28
2022-12-29T15:41:07.320Z,7.86
2022-12-29T15:43:49.165Z,7.18
2022-12-29T15:46:16.903Z,7.62
2022-12-29T15:48:44.171Z,8.02
2022-12-29T15:51:32.504Z,8.07
2022-12-29T15:53:59.666Z,8.37
2022-12-29T15:56:30.560Z,8.68
2022-12-29T15:58:58.415Z,8.33
2022-12-29T16:01:37.446Z,8.12
2022-12-29T16:04:09.290Z,8.48
2022-12-29T16:06:54.824Z,8.48
2022-12-29T16:09:34.787Z,8.22
2022-12-29T16:12:07.755Z,8.44
2022-12-29T16:14:46.036Z,8.73
2022-12-29T16:17:21.093Z,8.22
2022-12-29T16:20:22.904Z,8.63
2022-12-29T16:22:58.561Z,8.31
2022-12-29T16:25:29.137Z,7.94
2022-12-29T16:27:56.380Z,6.83
2022-12-29T16:30:33.859Z,6.74
2022-12-29T16:33:04.472Z,7.04
2022-12-29T16:35:47.858Z,7.18
2022-12-29T16:38:23.698Z,7.16
2022-12-29T16:40:59.326Z,7.20
2022-12-29T16:43:42.634Z,7.42
2022-12-29T16:46:31.139Z,6.60
2022-12-29T16:48:58.590Z,6.71
2022-12-29T16:51:31.543Z,7.42
2022-12-29T16:53:59.846Z,7.18
2022-12-29T16:56:33.910Z,7.11
2022-12-29T16:59:30.364Z,7.13
2022-12-29T17:02:00.097Z,7.04
2022-12-29T17:04:26.997Z,7.83
2022-12-29T17:06:53.766Z,7.57
2022-12-29T17:09:31.705Z,7.21
2022-12-29T17:12:10.456Z,7.37
2022-12-29T17:14:42.366Z,7.38
2022-12-29T17:17:37.346Z,7.47
2022-12-29T17:20:07.010Z,7.95
2022-12-29T17:22:34.133Z,8.27
2022-12-29T17:25:02.838Z,8.49
2022-12-29T17:27:52.393Z,8.45
2022-12-29T17:30:27.099Z,8.26
2022-12-29T17:33:06.270Z,8.44
2022-12-29T17:35:33.093Z,8.65
2022-12-29T17:37:59.779Z,8.93
2022-12-29T17:40:33.356Z,8.63
2022-12-29T17:43:00.458Z,8.42
2022-12-29T17:45:32.557Z,8.28
2022-12-29T17:48:01.675Z,8.25
2022-12-29T17:50:31.395Z,7.58
2022-12-29T17:53:05.529Z,8.10
2022-12-29T17:55:38.080Z,7.53
2022-12-29T17:58:31.497Z,8.03
2022-12-29T18:01:00.799Z,7.47
2022-12-29T18:03:34.791Z,7.39
2022-12-29T18:06:04.476Z,7.36
2022-12-29T18:08:32.602Z,7.64
2022-12-29T18:10:59.668Z,7.74
2022-12-29T18:13:43.544Z,8.39
2022-12-29T18:16:17.724Z,8.06
2022-12-29T18:18:45.375Z,7.39
2022-12-29T18:21:20.701Z,7.59
2022-12-29T18:23:48.639Z,7.13
2022-12-29T18:26:28.891Z,6.72
2022-12-29T18:28:59.600Z,6.72
2022-12-29T18:31:30.079Z,6.37
2022-12-29T18:34:00.811Z,6.55
2022-12-29T18:36:28.949Z,6.51
2022-12-29T18:38:55.761Z,6.86
2022-12-29T18:41:31.375Z,7.10
2022-12-29T18:43:59.687Z,7.03
2022-12-29T18:46:26.690Z,6.95
2022-12-29T18:48:53.896Z,6.94
2022-12-29T18:51:24.128Z,6.85
2022-12-29T18:53:53.911Z,7.48
2022-12-29T18:56:22.508Z,7.49
2022-12-29T18:58:49.956Z,7.30
2022-12-29T19:01:22.940Z,7.16
2022-12-29T19:03:50.161Z,7.48
2022-12-29T19:06:17.363Z,7.41
2022-12-29T19:08:44.286Z,7.64
2022-12-29T19:11:11.314Z,7.28
2022-12-29T19:13:38.525Z,7.62
2022-12-29T19:16:06.671Z,7.54
2022-12-29T19:19:00.957Z,7.39
2022-12-29T19:21:23.360Z,7.43
2022-12-29T19:23:51.862Z,7.21
2022-12-29T19:26:44.874Z,6.44
2022-12-29T19:29:18.012Z,6.59
2022-12-29T19:31:44.873Z,6.96
2022-12-29T19:34:16.888Z,7.51
2022-12-29T19:36:45.621Z,7.06
2022-12-29T19:39:13.171Z,7.25
2022-12-29T19:41:39.945Z,7.10
2022-12-29T19:44:08.280Z,6.61
2022-12-29T19:46:35.120Z,6.82
2022-12-29T19:49:01.828Z,7.47
2022-12-29T19:51:28.596Z,7.30
2022-12-29T19:53:55.864Z,8.02
2022-12-29T19:56:22.925Z,7.65
2022-12-29T19:58:50.578Z,7.74
2022-12-29T20:01:23.672Z,8.16
2022-12-29T20:03:51.446Z,8.20
2022-12-29T20:06:18.367Z,8.40
2022-12-29T20:08:45.194Z,8.18
2022-12-29T20:11:15.955Z,7.35
2022-12-29T20:13:43.792Z,7.75
2022-12-29T20:16:15.564Z,7.40
2022-12-29T20:18:43.087Z,6.95
2022-12-29T20:21:21.884Z,7.03
2022-12-29T20:23:51.095Z,6.77
2022-12-29T20:26:28.607Z,6.98
2022-12-29T20:28:58.601Z,7.48
2022-12-29T20:31:34.341Z,7.19
2022-12-29T20:34:01.641Z,7.38
2022-12-29T20:36:34.258Z,8.02
2022-12-29T20:39:06.055Z,7.28
2022-12-29T20:41:33.138Z,7.50
2022-12-29T20:44:00.517Z,7.81
2022-12-29T20:46:33.938Z,8.26
2022-12-29T20:49:07.845Z,8.05
2022-12-29T20:52:04.018Z,8.33
2022-12-29T20:54:22.899Z,8.28
2022-12-29T20:56:49.886Z,7.81
2022-12-29T20:59:27.374Z,7.79
2022-12-29T21:01:56.063Z,7.14
2022-12-29T21:04:23.155Z,6.93
2022-12-29T21:06:50.054Z,6.59
2022-12-29T21:09:16.792Z,6.23
2022-12-29T21:11:44.011Z,6.22
2022-12-29T21:14:11.650Z,6.41
2022-12-29T21:16:42.519Z,6.12
2022-12-29T21:19:17.512Z,6.38
2022-12-29T21:21:44.796Z,6.48
2022-12-29T21:24:11.475Z,6.61
2022-12-29T21:26:38.268Z,6.73
2022-12-29T21:29:08.520Z,6.41
2022-12-29T21:31:36.865Z,6.89
2022-12-29T21:34:05.591Z,6.82
2022-12-29T21:36:33.187Z,6.61
2022-12-29T21:39:03.114Z,6.89
2022-12-29T21:41:30.061Z,6.55
2022-12-29T21:44:17.207Z,6.37
2022-12-29T21:46:46.832Z,6.67
2022-12-29T21:49:13.779Z,6.34
2022-12-29T21:51:54.278Z,6.07
2022-12-29T21:54:48.805Z,6.11
2022-12-29T21:57:37.409Z,6.49
2022-12-29T22:00:25.865Z,6.42
2022-12-29T22:03:20.089Z,6.30
2022-12-29T22:06:09.202Z,6.82
2022-12-29T22:08:55.685Z,6.38
2022-12-29T22:11:40.906Z,6.52
2022-12-29T22:14:07.707Z,7.15
2022-12-29T22:16:34.411Z,6.22
2022-12-29T22:19:01.176Z,6.73
2022-12-29T22:21:27.967Z,6.38
2022-12-29T22:23:56.248Z,5.71
2022-12-29T22:26:22.937Z,6.26
2022-12-29T22:28:52.037Z,6.47
2022-12-29T22:31:32.763Z,6.47
2022-12-29T22:34:04.283Z,6.01
2022-12-29T22:36:32.368Z,6.23
2022-12-29T22:38:59.238Z,6.69
2022-12-29T22:41:26.028Z,6.50
2022-12-29T22:43:52.780Z,6.96
2022-12-29T22:46:19.811Z,7.30
2022-12-29T22:48:46.991Z,7.09
2022-12-29T22:51:13.946Z,7.01
2022-12-29T22:53:41.227Z,7.59
2022-12-29T22:56:11.598Z,6.83
2022-12-29T22:58:46.464Z,6.36
2022-12-29T23:01:16.367Z,6.47
2022-12-29T23:03:43.764Z,6.36
2022-12-29T23:06:16.356Z,6.14
2022-12-29T23:08:44.638Z,5.83
2022-12-29T23:11:13.364Z,6.12
2022-12-29T23:13:41.674Z,6.07
2022-12-29T23:16:08.582Z,7.39
2022-12-29T23:18:35.608Z,6.62
2022-12-29T23:21:02.554Z,6.73
2022-12-29T23:23:49.541Z,6.96
2022-12-29T23:26:18.796Z,6.89
2022-12-29T23:28:45.758Z,6.35
2022-12-29T23:31:13.092Z,6.09
2022-12-29T23:33:40.141Z,5.73
2022-12-29T23:36:07.809Z,5.61
2022-12-29T23:38:34.811Z,5.27
2022-12-29T23:41:01.650Z,4.98
2022-12-29T23:43:28.393Z,5.32
2022-12-29T23:45:55.132Z,5.68
2022-12-29T23:48:21.900Z,5.64
2022-12-29T23:50:48.676Z,5.29
2022-12-29T23:53:15.384Z,4.83
2022-12-29T23:55:44.007Z,4.81
2022-12-29T23:58:11.338Z,4.96
